sensor_id;sensor_type;location;lat;lon;timestamp;pressure;altitude;pressure_sealevel;temperature;humidity
56944;BME280;42848;42.524;12.052;2023-01-30T00:01:44;97113.31;;;1.56;100.00
56944;BME280;42848;42.524;12.052;2023-01-30T00:04:10;97106.84;;;1.52;100.00
56944;BME280;42848;42.524;12.052;2023-01-30T00:06:39;97115.47;;;1.59;100.00
56944;BME280;42848;42.524;12.052;2023-01-30T00:09:06;97110.75;;;1.66;100.00
56944;BME280;42848;42.524;12.052;2023-01-30T00:11:31;97102.34;;;1.84;100.00
56944;BME280;42848;42.524;12.052;2023-01-30T00:13:58;97102.00;;;1.76;100.00
56944;BME280;42848;42.524;12.052;2023-01-30T00:16:24;97095.88;;;1.80;100.00
56944;BME280;42848;42.524;12.052;2023-01-30T00:18:50;97100.72;;;1.83;100.00
56944;BME280;42848;42.524;12.052;2023-01-30T00:21:16;97099.19;;;1.92;100.00
56944;BME280;42848;42.524;12.052;2023-01-30T00:23:42;97093.38;;;1.68;100.00
56944;BME280;42848;42.524;12.052;2023-01-30T00:26:08;97103.25;;;1.68;100.00
56944;BME280;42848;42.524;12.052;2023-01-30T00:28:35;97093.47;;;1.52;100.00
56944;BME280;42848;42.524;12.052;2023-01-30T00:31:01;97090.03;;;1.56;100.00
56944;BME280;42848;42.524;12.052;2023-01-30T00:33:27;97093.56;;;1.35;100.00
56944;BME280;42848;42.524;12.052;2023-01-30T00:35:54;97098.78;;;1.47;100.00
56944;BME280;42848;42.524;12.052;2023-01-30T00:38:21;97096.28;;;1.40;100.00
56944;BME280;42848;42.524;12.052;2023-01-30T00:40:47;97098.72;;;1.41;100.00
56944;BME280;42848;42.524;12.052;2023-01-30T00:43:15;97104.06;;;1.41;100.00
56944;BME280;42848;42.524;12.052;2023-01-30T00:46:04;97098.81;;;1.25;100.00
56944;BME280;42848;42.524;12.052;2023-01-30T00:48:52;97101.56;;;1.35;100.00
56944;BME280;42848;42.524;12.052;2023-01-30T00:51:18;97092.91;;;1.50;100.00
56944;BME280;42848;42.524;12.052;2023-01-30T00:53:43;97101.91;;;1.38;100.00
56944;BME280;42848;42.524;12.052;2023-01-30T00:56:09;97090.84;;;1.57;100.00
56944;BME280;42848;42.524;12.052;2023-01-30T00:58:35;97090.13;;;1.39;100.00
56944;BME280;42848;42.524;12.052;2023-01-30T01:01:00;97097.03;;;1.35;100.00
56944;BME280;42848;42.524;12.052;2023-01-30T01:03:26;97092.66;;;1.24;100.00
56944;BME280;42848;42.524;12.052;2023-01-30T01:05:51;97091.59;;;1.25;100.00
56944;BME280;42848;42.524;12.052;2023-01-30T01:08:17;97089.41;;;1.22;100.00
56944;BME280;42848;42.524;12.052;2023-01-30T01:10:43;97090.88;;;1.35;100.00
56944;BME280;42848;42.524;12.052;2023-01-30T01:13:08;97096.47;;;1.33;100.00
56944;BME280;42848;42.524;12.052;2023-01-30T01:15:35;97094.25;;;1.25;100.00
56944;BME280;42848;42.524;12.052;2023-01-30T01:18:01;97094.25;;;1.25;100.00
56944;BME280;42848;42.524;12.052;2023-01-30T01:20:26;97097.47;;;1.27;100.00
56944;BME280;42848;42.524;12.052;2023-01-30T01:22:53;97090.84;;;1.30;100.00
56944;BME280;42848;42.524;12.052;2023-01-30T01:25:19;97092.03;;;1.17;100.00
56944;BME280;42848;42.524;12.052;2023-01-30T01:27:46;97098.25;;;1.23;100.00
56944;BME280;42848;42.524;12.052;2023-01-30T01:30:12;97092.84;;;1.18;100.00
56944;BME280;42848;42.524;12.052;2023-01-30T01:32:38;97095.50;;;1.18;100.00
56944;BME280;42848;42.524;12.052;2023-01-30T01:35:04;97089.53;;;1.32;100.00
56944;BME280;42848;42.524;12.052;2023-01-30T01:37:30;97085.63;;;1.18;100.00
56944;BME280;42848;42.524;12.052;2023-01-30T01:39:56;97091.53;;;1.20;100.00
56944;BME280;42848;42.524;12.052;2023-01-30T01:42:40;97093.59;;;1.13;100.00
56944;BME280;42848;42.524;12.052;2023-01-30T01:53:14;97086.91;;;1.10;100.00
56944;BME280;42848;42.524;12.052;2023-01-30T01:55:42;97082.84;;;1.08;100.00
56944;BME280;42848;42.524;12.052;2023-01-30T01:58:10;97081.78;;;1.09;100.00
56944;BME280;42848;42.524;12.052;2023-01-30T02:00:38;97079.69;;;1.11;100.00
56944;BME280;42848;42.524;12.052;2023-01-30T02:03:06;97079.91;;;1.09;100.00
56944;BME280;42848;42.524;12.052;2023-01-30T02:05:39;97070.41;;;0.97;100.00
56944;BME280;42848;42.524;12.052;2023-01-30T02:08:39;97078.69;;;0.95;100.00
56944;BME280;42848;42.524;12.052;2023-01-30T02:11:24;97074.66;;;0.93;100.00
56944;BME280;42848;42.524;12.052;2023-01-30T02:13:52;97070.13;;;0.93;100.00
56944;BME280;42848;42.524;12.052;2023-01-30T02:16:18;97082.41;;;0.94;100.00
56944;BME280;42848;42.524;12.052;2023-01-30T02:18:44;97068.00;;;0.95;100.00
56944;BME280;42848;42.524;12.052;2023-01-30T02:26:59;97063.75;;;0.99;100.00
56944;BME280;42848;42.524;12.052;2023-01-30T02:32:44;97056.69;;;0.88;100.00
56944;BME280;42848;42.524;12.052;2023-01-30T02:45:57;97053.28;;;0.93;100.00
56944;BME280;42848;42.524;12.052;2023-01-30T02:51:28;97046.44;;;1.02;100.00
56944;BME280;42848;42.524;12.052;2023-01-30T02:53:54;97053.38;;;1.03;100.00
56944;BME280;42848;42.524;12.052;2023-01-30T02:56:20;97055.09;;;1.14;100.00
56944;BME280;42848;42.524;12.052;2023-01-30T02:58:48;97052.97;;;1.16;100.00
56944;BME280;42848;42.524;12.052;2023-01-30T03:01:53;97044.41;;;1.14;100.00
56944;BME280;42848;42.524;12.052;2023-01-30T03:04:31;97042.28;;;1.16;100.00
56944;BME280;42848;42.524;12.052;2023-01-30T03:13:19;97026.84;;;1.23;100.00
56944;BME280;42848;42.524;12.052;2023-01-30T03:16:32;97038.78;;;1.10;100.00
56944;BME280;42848;42.524;12.052;2023-01-30T03:18:41;97033.72;;;1.14;100.00
56944;BME280;42848;42.524;12.052;2023-01-30T03:21:08;97039.25;;;1.07;100.00
56944;BME280;42848;42.524;12.052;2023-01-30T03:23:34;97035.75;;;1.02;100.00
56944;BME280;42848;42.524;12.052;2023-01-30T03:26:03;97041.19;;;1.12;100.00
56944;BME280;42848;42.524;12.052;2023-01-30T03:28:29;97028.88;;;1.11;100.00
56944;BME280;42848;42.524;12.052;2023-01-30T03:30:55;97027.28;;;1.10;100.00
56944;BME280;42848;42.524;12.052;2023-01-30T03:33:20;97030.50;;;1.12;100.00
56944;BME280;42848;42.524;12.052;2023-01-30T03:35:46;97024.34;;;1.11;100.00
56944;BME280;42848;42.524;12.052;2023-01-30T03:38:12;97025.75;;;1.19;100.00
56944;BME280;42848;42.524;12.052;2023-01-30T03:40:38;97020.28;;;1.09;100.00
56944;BME280;42848;42.524;12.052;2023-01-30T03:43:04;97015.28;;;1.18;100.00
56944;BME280;42848;42.524;12.052;2023-01-30T03:45:30;97018.69;;;1.08;100.00
56944;BME280;42848;42.524;12.052;2023-01-30T03:47:55;97016.25;;;1.06;100.00
56944;BME280;42848;42.524;12.052;2023-01-30T03:50:21;97022.50;;;0.90;100.00
56944;BME280;42848;42.524;12.052;2023-01-30T03:52:46;97033.00;;;0.97;100.00
56944;BME280;42848;42.524;12.052;2023-01-30T03:55:12;97039.84;;;0.88;100.00
56944;BME280;42848;42.524;12.052;2023-01-30T03:57:38;97031.38;;;0.96;100.00
56944;BME280;42848;42.524;12.052;2023-01-30T04:00:04;97030.22;;;0.87;100.00
56944;BME280;42848;42.524;12.052;2023-01-30T04:02:29;97033.41;;;0.83;100.00
56944;BME280;42848;42.524;12.052;2023-01-30T04:04:55;97029.22;;;0.93;100.00
56944;BME280;42848;42.524;12.052;2023-01-30T04:07:21;97026.03;;;0.96;100.00
56944;BME280;42848;42.524;12.052;2023-01-30T04:09:46;97018.56;;;0.98;100.00
56944;BME280;42848;42.524;12.052;2023-01-30T04:12:12;97015.59;;;0.94;100.00
56944;BME280;42848;42.524;12.052;2023-01-30T04:14:38;97018.91;;;1.01;100.00
56944;BME280;42848;42.524;12.052;2023-01-30T04:17:03;97015.56;;;1.16;100.00
56944;BME280;42848;42.524;12.052;2023-01-30T04:19:29;97015.97;;;1.03;100.00
56944;BME280;42848;42.524;12.052;2023-01-30T04:21:54;97009.00;;;1.02;100.00
56944;BME280;42848;42.524;12.052;2023-01-30T04:24:20;97012.50;;;1.29;100.00
56944;BME280;42848;42.524;12.052;2023-01-30T04:26:45;96998.78;;;1.26;100.00
56944;BME280;42848;42.524;12.052;2023-01-30T04:29:11;97012.44;;;1.24;100.00
56944;BME280;42848;42.524;12.052;2023-01-30T04:31:37;97015.66;;;1.26;100.00
56944;BME280;42848;42.524;12.052;2023-01-30T04:34:02;97009.28;;;1.32;100.00
56944;BME280;42848;42.524;12.052;2023-01-30T04:36:28;97001.53;;;1.31;100.00
56944;BME280;42848;42.524;12.052;2023-01-30T04:38:54;97000.28;;;1.43;100.00
56944;BME280;42848;42.524;12.052;2023-01-30T04:41:21;96997.69;;;1.49;100.00
56944;BME280;42848;42.524;12.052;2023-01-30T04:43:47;96994.69;;;1.45;100.00
56944;BME280;42848;42.524;12.052;2023-01-30T04:46:12;96992.38;;;1.27;100.00
56944;BME280;42848;42.524;12.052;2023-01-30T04:48:38;96998.50;;;1.22;100.00
56944;BME280;42848;42.524;12.052;2023-01-30T04:51:04;97000.63;;;1.20;100.00
56944;BME280;42848;42.524;12.052;2023-01-30T04:53:29;97001.63;;;1.14;100.00
56944;BME280;42848;42.524;12.052;2023-01-30T04:55:55;96995.19;;;1.10;100.00
56944;BME280;42848;42.524;12.052;2023-01-30T04:58:21;96987.41;;;1.08;100.00
56944;BME280;42848;42.524;12.052;2023-01-30T05:00:47;96983.81;;;0.98;100.00
56944;BME280;42848;42.524;12.052;2023-01-30T05:03:14;96984.38;;;1.00;100.00
56944;BME280;42848;42.524;12.052;2023-01-30T05:05:40;96983.91;;;1.08;100.00
56944;BME280;42848;42.524;12.052;2023-01-30T05:08:06;96988.63;;;0.96;100.00
56944;BME280;42848;42.524;12.052;2023-01-30T05:10:32;96981.75;;;1.05;100.00
56944;BME280;42848;42.524;12.052;2023-01-30T05:13:02;96985.50;;;1.04;100.00
56944;BME280;42848;42.524;12.052;2023-01-30T05:15:28;96988.16;;;1.04;100.00
56944;BME280;42848;42.524;12.052;2023-01-30T05:17:53;96983.53;;;1.21;100.00
56944;BME280;42848;42.524;12.052;2023-01-30T05:20:19;96985.31;;;1.42;100.00
56944;BME280;42848;42.524;12.052;2023-01-30T05:22:44;96984.16;;;1.33;100.00
56944;BME280;42848;42.524;12.052;2023-01-30T05:25:10;96989.00;;;1.36;100.00
56944;BME280;42848;42.524;12.052;2023-01-30T05:27:36;96990.06;;;1.35;100.00
56944;BME280;42848;42.524;12.052;2023-01-30T05:30:02;96987.63;;;1.02;100.00
56944;BME280;42848;42.524;12.052;2023-01-30T05:32:27;96983.66;;;1.36;100.00
56944;BME280;42848;42.524;12.052;2023-01-30T05:34:55;96997.16;;;1.52;100.00
56944;BME280;42848;42.524;12.052;2023-01-30T05:37:21;96994.94;;;1.43;100.00
56944;BME280;42848;42.524;12.052;2023-01-30T05:39:46;96997.34;;;1.40;100.00
56944;BME280;42848;42.524;12.052;2023-01-30T05:42:14;96998.09;;;1.35;100.00
56944;BME280;42848;42.524;12.052;2023-01-30T05:44:39;97006.25;;;1.51;100.00
56944;BME280;42848;42.524;12.052;2023-01-30T05:47:05;97000.28;;;1.43;100.00
56944;BME280;42848;42.524;12.052;2023-01-30T05:49:30;96992.31;;;1.49;100.00
56944;BME280;42848;42.524;12.052;2023-01-30T05:51:56;96997.69;;;1.54;100.00
56944;BME280;42848;42.524;12.052;2023-01-30T05:54:22;96995.94;;;1.32;100.00
56944;BME280;42848;42.524;12.052;2023-01-30T05:56:49;97005.97;;;1.47;100.00
56944;BME280;42848;42.524;12.052;2023-01-30T05:59:14;97009.00;;;1.61;100.00
56944;BME280;42848;42.524;12.052;2023-01-30T06:01:40;97008.56;;;1.42;100.00
56944;BME280;42848;42.524;12.052;2023-01-30T06:04:06;97003.75;;;1.12;100.00
56944;BME280;42848;42.524;12.052;2023-01-30T06:06:32;97011.72;;;1.34;100.00
56944;BME280;42848;42.524;12.052;2023-01-30T06:08:57;97012.91;;;1.48;100.00
56944;BME280;42848;42.524;12.052;2023-01-30T06:11:24;97017.22;;;1.54;100.00
56944;BME280;42848;42.524;12.052;2023-01-30T06:13:49;97016.41;;;1.49;100.00
56944;BME280;42848;42.524;12.052;2023-01-30T06:16:16;97025.03;;;1.56;100.00
56944;BME280;42848;42.524;12.052;2023-01-30T06:18:43;97025.94;;;1.71;100.00
56944;BME280;42848;42.524;12.052;2023-01-30T06:21:11;97023.59;;;1.75;100.00
56944;BME280;42848;42.524;12.052;2023-01-30T06:23:38;97034.09;;;1.55;100.00
56944;BME280;42848;42.524;12.052;2023-01-30T06:26:04;97036.75;;;1.23;100.00
56944;BME280;42848;42.524;12.052;2023-01-30T06:28:30;97038.34;;;0.97;100.00
56944;BME280;42848;42.524;12.052;2023-01-30T06:30:56;97026.66;;;1.03;100.00
56944;BME280;42848;42.524;12.052;2023-01-30T06:33:21;97028.31;;;1.36;100.00
56944;BME280;42848;42.524;12.052;2023-01-30T06:35:49;97041.81;;;1.51;100.00
56944;BME280;42848;42.524;12.052;2023-01-30T06:38:16;97037.34;;;1.57;100.00
56944;BME280;42848;42.524;12.052;2023-01-30T06:40:47;97039.69;;;1.21;100.00
56944;BME280;42848;42.524;12.052;2023-01-30T06:43:13;97033.53;;;1.21;100.00
56944;BME280;42848;42.524;12.052;2023-01-30T06:45:39;97039.44;;;1.55;100.00
56944;BME280;42848;42.524;12.052;2023-01-30T06:48:06;97035.25;;;1.37;100.00
56944;BME280;42848;42.524;12.052;2023-01-30T06:50:32;97048.84;;;1.03;100.00
56944;BME280;42848;42.524;12.052;2023-01-30T06:53:04;97041.38;;;1.32;100.00
56944;BME280;42848;42.524;12.052;2023-01-30T06:55:31;97045.31;;;1.25;100.00
56944;BME280;42848;42.524;12.052;2023-01-30T06:58:09;97049.56;;;1.48;100.00
56944;BME280;42848;42.524;12.052;2023-01-30T07:00:37;97058.53;;;1.36;100.00
56944;BME280;42848;42.524;12.052;2023-01-30T07:03:07;97058.28;;;1.65;100.00
56944;BME280;42848;42.524;12.052;2023-01-30T07:05:36;97052.78;;;1.50;100.00
56944;BME280;42848;42.524;12.052;2023-01-30T07:08:02;97064.03;;;1.52;100.00
56944;BME280;42848;42.524;12.052;2023-01-30T07:10:28;97065.28;;;1.71;100.00
56944;BME280;42848;42.524;12.052;2023-01-30T07:12:56;97061.19;;;1.63;100.00
56944;BME280;42848;42.524;12.052;2023-01-30T07:15:22;97075.34;;;1.59;100.00
56944;BME280;42848;42.524;12.052;2023-01-30T07:17:47;97077.13;;;1.48;100.00
56944;BME280;42848;42.524;12.052;2023-01-30T07:20:13;97085.59;;;1.67;100.00
56944;BME280;42848;42.524;12.052;2023-01-30T07:22:38;97089.19;;;1.51;100.00
56944;BME280;42848;42.524;12.052;2023-01-30T07:25:05;97080.97;;;1.62;100.00
56944;BME280;42848;42.524;12.052;2023-01-30T07:27:31;97091.44;;;1.64;100.00
56944;BME280;42848;42.524;12.052;2023-01-30T07:29:56;97087.81;;;1.75;100.00
56944;BME280;42848;42.524;12.052;2023-01-30T07:32:22;97093.00;;;1.60;100.00
56944;BME280;42848;42.524;12.052;2023-01-30T07:34:48;97087.81;;;1.75;100.00
56944;BME280;42848;42.524;12.052;2023-01-30T07:37:13;97086.97;;;2.02;100.00
56944;BME280;42848;42.524;12.052;2023-01-30T07:39:39;97080.41;;;1.87;100.00
56944;BME280;42848;42.524;12.052;2023-01-30T07:42:05;97071.91;;;1.95;100.00
56944;BME280;42848;42.524;12.052;2023-01-30T07:44:31;97073.53;;;1.96;100.00
56944;BME280;42848;42.524;12.052;2023-01-30T07:46:59;97073.56;;;2.02;100.00
56944;BME280;42848;42.524;12.052;2023-01-30T07:49:25;97069.84;;;2.08;100.00
56944;BME280;42848;42.524;12.052;2023-01-30T07:51:51;97073.78;;;2.37;100.00
56944;BME280;42848;42.524;12.052;2023-01-30T07:54:16;97077.94;;;2.13;100.00
56944;BME280;42848;42.524;12.052;2023-01-30T07:56:42;97073.28;;;2.40;100.00
56944;BME280;42848;42.524;12.052;2023-01-30T07:59:10;97067.78;;;2.57;100.00
56944;BME280;42848;42.524;12.052;2023-01-30T08:01:35;97063.19;;;2.52;100.00
56944;BME280;42848;42.524;12.052;2023-01-30T08:04:01;97073.94;;;2.58;100.00
56944;BME280;42848;42.524;12.052;2023-01-30T08:06:26;97071.09;;;2.32;100.00
56944;BME280;42848;42.524;12.052;2023-01-30T08:08:52;97064.25;;;2.51;100.00
56944;BME280;42848;42.524;12.052;2023-01-30T08:11:17;97067.16;;;2.45;100.00
56944;BME280;42848;42.524;12.052;2023-01-30T08:13:44;97066.59;;;2.43;100.00
56944;BME280;42848;42.524;12.052;2023-01-30T08:16:11;97065.59;;;2.54;100.00
56944;BME280;42848;42.524;12.052;2023-01-30T08:18:36;97062.91;;;2.54;100.00
56944;BME280;42848;42.524;12.052;2023-01-30T08:21:04;97057.84;;;2.58;100.00
56944;BME280;42848;42.524;12.052;2023-01-30T08:23:31;97061.66;;;2.72;100.00
56944;BME280;42848;42.524;12.052;2023-01-30T08:25:59;97064.88;;;2.74;100.00
56944;BME280;42848;42.524;12.052;2023-01-30T08:28:25;97076.72;;;2.83;100.00
56944;BME280;42848;42.524;12.052;2023-01-30T08:30:52;97081.84;;;2.90;100.00
56944;BME280;42848;42.524;12.052;2023-01-30T08:33:22;97078.66;;;2.98;100.00
56944;BME280;42848;42.524;12.052;2023-01-30T08:35:48;97080.59;;;3.02;100.00
56944;BME280;42848;42.524;12.052;2023-01-30T08:38:14;97087.81;;;3.07;100.00
56944;BME280;42848;42.524;12.052;2023-01-30T08:40:40;97088.66;;;3.18;100.00
56944;BME280;42848;42.524;12.052;2023-01-30T08:43:06;97094.00;;;3.07;100.00
56944;BME280;42848;42.524;12.052;2023-01-30T08:45:32;97095.63;;;3.19;100.00
56944;BME280;42848;42.524;12.052;2023-01-30T08:47:59;97100.75;;;3.20;100.00
56944;BME280;42848;42.524;12.052;2023-01-30T08:50:25;97098.88;;;3.26;100.00
56944;BME280;42848;42.524;12.052;2023-01-30T08:52:51;97106.69;;;3.32;100.00
56944;BME280;42848;42.524;12.052;2023-01-30T08:55:17;97125.22;;;3.39;100.00
56944;BME280;42848;42.524;12.052;2023-01-30T08:57:43;97108.88;;;3.40;100.00
56944;BME280;42848;42.524;12.052;2023-01-30T09:00:09;97117.22;;;3.49;100.00
56944;BME280;42848;42.524;12.052;2023-01-30T09:02:36;97125.81;;;3.51;100.00
56944;BME280;42848;42.524;12.052;2023-01-30T09:05:02;97139.78;;;3.58;100.00
56944;BME280;42848;42.524;12.052;2023-01-30T09:07:29;97123.13;;;3.61;100.00
56944;BME280;42848;42.524;12.052;2023-01-30T09:09:54;97124.47;;;3.64;100.00
56944;BME280;42848;42.524;12.052;2023-01-30T09:12:21;97133.88;;;3.71;100.00
56944;BME280;42848;42.524;12.052;2023-01-30T09:14:46;97131.75;;;3.74;100.00
56944;BME280;42848;42.524;12.052;2023-01-30T09:17:12;97128.28;;;3.98;100.00
56944;BME280;42848;42.524;12.052;2023-01-30T09:19:38;97119.16;;;3.84;100.00
56944;BME280;42848;42.524;12.052;2023-01-30T09:22:04;97124.78;;;3.88;100.00
56944;BME280;42848;42.524;12.052;2023-01-30T09:24:32;97119.69;;;3.91;100.00
56944;BME280;42848;42.524;12.052;2023-01-30T09:26:57;97121.06;;;3.94;100.00
56944;BME280;42848;42.524;12.052;2023-01-30T09:29:26;97126.16;;;3.95;100.00
56944;BME280;42848;42.524;12.052;2023-01-30T09:31:52;97126.44;;;3.94;100.00
56944;BME280;42848;42.524;12.052;2023-01-30T09:34:18;97129.91;;;3.94;100.00
56944;BME280;42848;42.524;12.052;2023-01-30T09:36:44;97130.72;;;4.10;100.00
56944;BME280;42848;42.524;12.052;2023-01-30T09:39:09;97126.69;;;4.03;100.00
56944;BME280;42848;42.524;12.052;2023-01-30T09:50:14;97134.50;;;4.14;100.00
56944;BME280;42848;42.524;12.052;2023-01-30T09:55:27;97121.59;;;4.16;100.00
56944;BME280;42848;42.524;12.052;2023-01-30T09:57:56;97116.47;;;4.20;100.00
56944;BME280;42848;42.524;12.052;2023-01-30T10:00:39;97115.69;;;4.24;100.00
56944;BME280;42848;42.524;12.052;2023-01-30T10:03:17;97102.78;;;4.32;100.00
56944;BME280;42848;42.524;12.052;2023-01-30T10:06:04;97100.06;;;4.37;100.00
56944;BME280;42848;42.524;12.052;2023-01-30T10:08:55;97087.16;;;4.39;100.00
56944;BME280;42848;42.524;12.052;2023-01-30T10:11:38;97090.91;;;4.48;100.00
56944;BME280;42848;42.524;12.052;2023-01-30T10:17:02;97078.03;;;4.50;100.00
56944;BME280;42848;42.524;12.052;2023-01-30T10:19:56;97077.19;;;4.60;100.00
56944;BME280;42848;42.524;12.052;2023-01-30T10:27:46;97073.16;;;4.67;100.00
56944;BME280;42848;42.524;12.052;2023-01-30T10:30:15;97083.34;;;4.70;100.00
56944;BME280;42848;42.524;12.052;2023-01-30T10:32:45;97073.41;;;4.71;100.00
56944;BME280;42848;42.524;12.052;2023-01-30T10:35:17;97076.34;;;4.79;100.00
56944;BME280;42848;42.524;12.052;2023-01-30T10:43:18;97065.53;;;4.84;100.00
56944;BME280;42848;42.524;12.052;2023-01-30T10:48:47;97051.56;;;4.88;100.00
56944;BME280;42848;42.524;12.052;2023-01-30T10:51:24;97044.25;;;4.98;100.00
56944;BME280;42848;42.524;12.052;2023-01-30T10:54:10;97034.06;;;4.95;100.00
56944;BME280;42848;42.524;12.052;2023-01-30T10:56:46;97032.41;;;4.99;100.00
56944;BME280;42848;42.524;12.052;2023-01-30T10:59:22;97027.84;;;5.00;100.00
56944;BME280;42848;42.524;12.052;2023-01-30T11:02:24;97028.91;;;5.04;100.00
56944;BME280;42848;42.524;12.052;2023-01-30T11:04:57;97027.28;;;5.03;100.00
56944;BME280;42848;42.524;12.052;2023-01-30T11:07:25;97019.25;;;4.98;100.00
56944;BME280;42848;42.524;12.052;2023-01-30T11:09:57;97014.91;;;5.02;100.00
56944;BME280;42848;42.524;12.052;2023-01-30T11:12:23;97016.50;;;5.08;100.00
56944;BME280;42848;42.524;12.052;2023-01-30T11:17:20;97016.47;;;5.13;100.00
56944;BME280;42848;42.524;12.052;2023-01-30T11:19:54;97022.41;;;5.10;100.00
56944;BME280;42848;42.524;12.052;2023-01-30T11:22:23;97012.38;;;5.21;100.00
56944;BME280;42848;42.524;12.052;2023-01-30T11:25:03;97020.22;;;5.17;100.00
56944;BME280;42848;42.524;12.052;2023-01-30T11:27:32;97017.53;;;5.17;100.00
56944;BME280;42848;42.524;12.052;2023-01-30T11:30:12;97013.22;;;5.21;100.00
56944;BME280;42848;42.524;12.052;2023-01-30T11:32:44;97003.72;;;5.29;100.00
56944;BME280;42848;42.524;12.052;2023-01-30T11:37:42;96998.09;;;5.30;100.00
56944;BME280;42848;42.524;12.052;2023-01-30T11:42:48;96998.53;;;5.42;100.00
56944;BME280;42848;42.524;12.052;2023-01-30T11:45:14;96987.50;;;5.39;100.00
56944;BME280;42848;42.524;12.052;2023-01-30T11:47:52;96986.09;;;5.52;100.00
56944;BME280;42848;42.524;12.052;2023-01-30T11:50:19;96985.59;;;5.45;100.00
56944;BME280;42848;42.524;12.052;2023-01-30T11:52:48;96989.59;;;5.47;100.00
56944;BME280;42848;42.524;12.052;2023-01-30T11:55:18;96983.38;;;5.52;100.00
56944;BME280;42848;42.524;12.052;2023-01-30T11:57:51;96975.63;;;5.45;100.00
56944;BME280;42848;42.524;12.052;2023-01-30T12:00:21;96963.97;;;5.55;100.00
56944;BME280;42848;42.524;12.052;2023-01-30T12:02:50;96961.28;;;5.55;100.00
56944;BME280;42848;42.524;12.052;2023-01-30T12:05:33;96944.59;;;5.53;100.00
56944;BME280;42848;42.524;12.052;2023-01-30T12:08:54;96940.22;;;5.62;100.00
56944;BME280;42848;42.524;12.052;2023-01-30T12:11:45;96938.34;;;5.62;100.00
56944;BME280;42848;42.524;12.052;2023-01-30T12:14:25;96917.59;;;5.63;100.00
56944;BME280;42848;42.524;12.052;2023-01-30T12:17:03;96906.09;;;5.52;100.00
56944;BME280;42848;42.524;12.052;2023-01-30T12:30:33;96875.91;;;5.84;100.00
56944;BME280;42848;42.524;12.052;2023-01-30T12:33:04;96876.69;;;5.85;100.00
56944;BME280;42848;42.524;12.052;2023-01-30T12:35:59;96879.69;;;5.83;100.00
56944;BME280;42848;42.524;12.052;2023-01-30T12:41:34;96894.59;;;6.05;100.00
56944;BME280;42848;42.524;12.052;2023-01-30T12:58:20;96885.75;;;6.23;100.00
56944;BME280;42848;42.524;12.052;2023-01-30T13:01:10;96875.19;;;6.26;100.00
56944;BME280;42848;42.524;12.052;2023-01-30T13:03:57;96869.03;;;6.21;100.00
56944;BME280;42848;42.524;12.052;2023-01-30T13:15:24;96832.66;;;6.42;100.00
56944;BME280;42848;42.524;12.052;2023-01-30T13:18:09;96830.34;;;6.54;100.00
56944;BME280;42848;42.524;12.052;2023-01-30T13:20:53;96828.78;;;6.48;100.00
56944;BME280;42848;42.524;12.052;2023-01-30T13:26:08;96810.81;;;6.63;100.00
56944;BME280;42848;42.524;12.052;2023-01-30T13:28:38;96808.31;;;6.66;100.00
56944;BME280;42848;42.524;12.052;2023-01-30T13:31:10;96794.75;;;6.71;100.00
56944;BME280;42848;42.524;12.052;2023-01-30T13:33:39;96792.28;;;6.75;100.00
56944;BME280;42848;42.524;12.052;2023-01-30T13:36:19;96785.13;;;6.84;100.00
56944;BME280;42848;42.524;12.052;2023-01-30T13:38:59;96788.34;;;6.86;100.00
56944;BME280;42848;42.524;12.052;2023-01-30T13:41:29;96785.47;;;6.96;100.00
56944;BME280;42848;42.524;12.052;2023-01-30T13:43:56;96793.91;;;7.08;100.00
56944;BME280;42848;42.524;12.052;2023-01-30T13:46:26;96800.53;;;7.16;100.00
56944;BME280;42848;42.524;12.052;2023-01-30T13:49:24;96805.19;;;7.10;100.00
56944;BME280;42848;42.524;12.052;2023-01-30T13:52:01;96811.38;;;6.97;100.00
56944;BME280;42848;42.524;12.052;2023-01-30T13:57:27;96806.41;;;7.04;100.00
56944;BME280;42848;42.524;12.052;2023-01-30T14:00:08;96805.66;;;6.99;100.00
56944;BME280;42848;42.524;12.052;2023-01-30T14:08:21;96803.94;;;7.22;100.00
56944;BME280;42848;42.524;12.052;2023-01-30T14:10:48;96815.75;;;7.26;100.00
56944;BME280;42848;42.524;12.052;2023-01-30T14:13:15;96818.22;;;7.41;100.00
56944;BME280;42848;42.524;12.052;2023-01-30T14:16:00;96819.19;;;7.45;100.00
56944;BME280;42848;42.524;12.052;2023-01-30T14:18:30;96809.69;;;7.48;100.00
56944;BME280;42848;42.524;12.052;2023-01-30T14:21:18;96814.72;;;7.54;100.00
56944;BME280;42848;42.524;12.052;2023-01-30T14:24:02;96810.69;;;7.38;100.00
56944;BME280;42848;42.524;12.052;2023-01-30T14:45:58;96815.09;;;7.34;100.00
56944;BME280;42848;42.524;12.052;2023-01-30T14:51:35;96811.69;;;7.42;100.00
56944;BME280;42848;42.524;12.052;2023-01-30T14:56:51;96820.72;;;7.51;100.00
56944;BME280;42848;42.524;12.052;2023-01-30T15:07:19;96809.09;;;7.04;100.00
56944;BME280;42848;42.524;12.052;2023-01-30T15:09:57;96814.56;;;6.99;100.00
56944;BME280;42848;42.524;12.052;2023-01-30T15:12:37;96820.41;;;7.06;100.00
56944;BME280;42848;42.524;12.052;2023-01-30T15:26:02;96835.56;;;7.02;100.00
56944;BME280;42848;42.524;12.052;2023-01-30T15:31:25;96837.47;;;6.83;100.00
56944;BME280;42848;42.524;12.052;2023-01-30T15:33:53;96844.75;;;7.01;100.00
56944;BME280;42848;42.524;12.052;2023-01-30T15:36:28;96855.06;;;6.99;100.00
56944;BME280;42848;42.524;12.052;2023-01-30T15:38:57;96848.72;;;6.90;100.00
56944;BME280;42848;42.524;12.052;2023-01-30T15:41:22;96846.88;;;7.04;100.00
56944;BME280;42848;42.524;12.052;2023-01-30T15:44:03;96849.38;;;6.82;100.00
56944;BME280;42848;42.524;12.052;2023-01-30T15:51:46;96846.31;;;6.89;100.00
56944;BME280;42848;42.524;12.052;2023-01-30T15:54:16;96849.81;;;6.89;100.00
56944;BME280;42848;42.524;12.052;2023-01-30T15:56:45;96839.47;;;6.77;100.00